sensor_id;sensor_type;location;lat;lon;timestamp;P1;durP1;ratioP1;P2;durP2;ratioP2
46889;SDS011;32625;51.080;16.970;2023-09-30T00:00:58;17.00;;;10.65;;
46889;SDS011;32625;51.080;16.970;2023-09-30T00:03:25;14.27;;;10.88;;
46889;SDS011;32625;51.080;16.970;2023-09-30T00:05:52;14.60;;;11.20;;
46889;SDS011;32625;51.080;16.970;2023-09-30T00:08:19;15.90;;;10.98;;
46889;SDS011;32625;51.080;16.970;2023-09-30T00:10:46;14.57;;;10.63;;
46889;SDS011;32625;51.080;16.970;2023-09-30T00:13:14;14.02;;;10.20;;
46889;SDS011;32625;51.080;16.970;2023-09-30T00:15:41;16.70;;;11.05;;
46889;SDS011;32625;51.080;16.970;2023-09-30T00:18:08;14.18;;;11.13;;
46889;SDS011;32625;51.080;16.970;2023-09-30T00:20:35;15.75;;;10.80;;
46889;SDS011;32625;51.080;16.970;2023-09-30T00:23:02;17.27;;;10.35;;
46889;SDS011;32625;51.080;16.970;2023-09-30T00:25:29;14.45;;;11.32;;
46889;SDS011;32625;51.080;16.970;2023-09-30T00:27:56;15.48;;;10.63;;
46889;SDS011;32625;51.080;16.970;2023-09-30T00:30:23;13.27;;;11.00;;
46889;SDS011;32625;51.080;16.970;2023-09-30T00:32:50;14.40;;;11.15;;
46889;SDS011;32625;51.080;16.970;2023-09-30T00:35:17;11.82;;;10.40;;
46889;SDS011;32625;51.080;16.970;2023-09-30T00:37:44;14.95;;;11.10;;
46889;SDS011;32625;51.080;16.970;2023-09-30T00:40:11;17.45;;;10.90;;
46889;SDS011;32625;51.080;16.970;2023-09-30T00:42:41;16.50;;;11.65;;
46889;SDS011;32625;51.080;16.970;2023-09-30T00:45:08;15.88;;;10.75;;
46889;SDS011;32625;51.080;16.970;2023-09-30T00:47:36;15.35;;;10.38;;
46889;SDS011;32625;51.080;16.970;2023-09-30T00:50:04;17.25;;;10.93;;
46889;SDS011;32625;51.080;16.970;2023-09-30T00:52:35;13.90;;;10.75;;
46889;SDS011;32625;51.080;16.970;2023-09-30T00:55:04;14.38;;;10.65;;
46889;SDS011;32625;51.080;16.970;2023-09-30T00:57:34;14.35;;;10.75;;
46889;SDS011;32625;51.080;16.970;2023-09-30T01:00:02;12.38;;;10.27;;
46889;SDS011;32625;51.080;16.970;2023-09-30T01:02:29;13.55;;;10.57;;
46889;SDS011;32625;51.080;16.970;2023-09-30T01:04:56;17.30;;;10.63;;
46889;SDS011;32625;51.080;16.970;2023-09-30T01:07:24;12.68;;;9.80;;
46889;SDS011;32625;51.080;16.970;2023-09-30T01:09:52;14.55;;;10.82;;
46889;SDS011;32625;51.080;16.970;2023-09-30T01:12:19;16.10;;;11.00;;
46889;SDS011;32625;51.080;16.970;2023-09-30T01:14:46;19.17;;;10.55;;
46889;SDS011;32625;51.080;16.970;2023-09-30T01:17:13;12.30;;;10.25;;
46889;SDS011;32625;51.080;16.970;2023-09-30T01:19:40;20.52;;;10.20;;
46889;SDS011;32625;51.080;16.970;2023-09-30T01:22:09;14.73;;;10.25;;
46889;SDS011;32625;51.080;16.970;2023-09-30T01:24:40;17.38;;;10.75;;
46889;SDS011;32625;51.080;16.970;2023-09-30T01:27:09;14.25;;;10.35;;
46889;SDS011;32625;51.080;16.970;2023-09-30T01:29:36;11.90;;;9.57;;
46889;SDS011;32625;51.080;16.970;2023-09-30T01:32:05;17.13;;;10.77;;
46889;SDS011;32625;51.080;16.970;2023-09-30T01:34:36;14.63;;;10.70;;
46889;SDS011;32625;51.080;16.970;2023-09-30T01:37:03;18.67;;;9.88;;
46889;SDS011;32625;51.080;16.970;2023-09-30T01:39:31;11.20;;;9.35;;
46889;SDS011;32625;51.080;16.970;2023-09-30T01:41:59;11.90;;;9.38;;
46889;SDS011;32625;51.080;16.970;2023-09-30T01:44:26;12.88;;;8.70;;
46889;SDS011;32625;51.080;16.970;2023-09-30T01:46:54;12.68;;;8.52;;
46889;SDS011;32625;51.080;16.970;2023-09-30T01:49:20;13.07;;;9.63;;
46889;SDS011;32625;51.080;16.970;2023-09-30T01:51:50;13.27;;;9.43;;
46889;SDS011;32625;51.080;16.970;2023-09-30T01:54:17;13.82;;;9.35;;
46889;SDS011;32625;51.080;16.970;2023-09-30T01:56:44;10.10;;;8.75;;
46889;SDS011;32625;51.080;16.970;2023-09-30T01:59:11;14.88;;;9.23;;
46889;SDS011;32625;51.080;16.970;2023-09-30T02:01:38;16.00;;;9.57;;
46889;SDS011;32625;51.080;16.970;2023-09-30T02:04:06;10.80;;;8.63;;
46889;SDS011;32625;51.080;16.970;2023-09-30T02:06:33;12.30;;;10.02;;
46889;SDS011;32625;51.080;16.970;2023-09-30T02:09:02;11.43;;;8.80;;
46889;SDS011;32625;51.080;16.970;2023-09-30T02:11:31;12.80;;;8.00;;
46889;SDS011;32625;51.080;16.970;2023-09-30T02:13:58;11.77;;;8.35;;
46889;SDS011;32625;51.080;16.970;2023-09-30T02:16:25;13.73;;;7.53;;
46889;SDS011;32625;51.080;16.970;2023-09-30T02:18:52;12.10;;;7.43;;
46889;SDS011;32625;51.080;16.970;2023-09-30T02:21:20;12.68;;;6.47;;
46889;SDS011;32625;51.080;16.970;2023-09-30T02:23:49;10.25;;;5.97;;
46889;SDS011;32625;51.080;16.970;2023-09-30T02:26:17;14.13;;;7.75;;
46889;SDS011;32625;51.080;16.970;2023-09-30T02:28:44;11.40;;;6.22;;
46889;SDS011;32625;51.080;16.970;2023-09-30T02:31:11;11.63;;;6.07;;
46889;SDS011;32625;51.080;16.970;2023-09-30T02:33:39;11.85;;;6.47;;
46889;SDS011;32625;51.080;16.970;2023-09-30T02:36:09;8.45;;;6.15;;
46889;SDS011;32625;51.080;16.970;2023-09-30T02:38:36;10.30;;;5.80;;
46889;SDS011;32625;51.080;16.970;2023-09-30T02:41:03;10.30;;;6.03;;
46889;SDS011;32625;51.080;16.970;2023-09-30T02:43:31;8.73;;;5.70;;
46889;SDS011;32625;51.080;16.970;2023-09-30T02:45:59;14.55;;;6.63;;
46889;SDS011;32625;51.080;16.970;2023-09-30T02:48:26;8.32;;;6.45;;
46889;SDS011;32625;51.080;16.970;2023-09-30T02:50:54;8.82;;;6.22;;
46889;SDS011;32625;51.080;16.970;2023-09-30T02:53:21;9.75;;;6.53;;
46889;SDS011;32625;51.080;16.970;2023-09-30T02:55:48;11.13;;;6.05;;
46889;SDS011;32625;51.080;16.970;2023-09-30T02:58:18;10.48;;;6.18;;
46889;SDS011;32625;51.080;16.970;2023-09-30T03:00:48;9.90;;;6.80;;
46889;SDS011;32625;51.080;16.970;2023-09-30T03:03:16;10.77;;;6.40;;
46889;SDS011;32625;51.080;16.970;2023-09-30T03:05:43;11.35;;;6.32;;
46889;SDS011;32625;51.080;16.970;2023-09-30T03:08:12;10.27;;;6.03;;
46889;SDS011;32625;51.080;16.970;2023-09-30T03:10:38;12.48;;;6.65;;
46889;SDS011;32625;51.080;16.970;2023-09-30T03:13:07;11.60;;;6.40;;
46889;SDS011;32625;51.080;16.970;2023-09-30T03:15:35;9.07;;;6.32;;
46889;SDS011;32625;51.080;16.970;2023-09-30T03:18:03;10.32;;;6.47;;
46889;SDS011;32625;51.080;16.970;2023-09-30T03:20:31;12.15;;;6.43;;
46889;SDS011;32625;51.080;16.970;2023-09-30T03:22:58;12.05;;;6.55;;
46889;SDS011;32625;51.080;16.970;2023-09-30T03:25:25;13.27;;;6.85;;
46889;SDS011;32625;51.080;16.970;2023-09-30T03:27:53;8.65;;;6.30;;
46889;SDS011;32625;51.080;16.970;2023-09-30T03:30:20;8.23;;;6.18;;
46889;SDS011;32625;51.080;16.970;2023-09-30T03:32:47;13.55;;;6.70;;
46889;SDS011;32625;51.080;16.970;2023-09-30T03:35:14;11.13;;;6.00;;
46889;SDS011;32625;51.080;16.970;2023-09-30T03:37:44;8.20;;;6.10;;
46889;SDS011;32625;51.080;16.970;2023-09-30T03:40:13;9.70;;;6.35;;
46889;SDS011;32625;51.080;16.970;2023-09-30T03:42:45;10.88;;;6.40;;
46889;SDS011;32625;51.080;16.970;2023-09-30T03:45:16;10.85;;;6.15;;
46889;SDS011;32625;51.080;16.970;2023-09-30T03:47:43;11.55;;;6.07;;
46889;SDS011;32625;51.080;16.970;2023-09-30T03:50:11;12.43;;;6.57;;
46889;SDS011;32625;51.080;16.970;2023-09-30T03:52:42;9.82;;;6.50;;
46889;SDS011;32625;51.080;16.970;2023-09-30T03:55:15;14.75;;;6.63;;
46889;SDS011;32625;51.080;16.970;2023-09-30T03:57:47;11.98;;;6.70;;
46889;SDS011;32625;51.080;16.970;2023-09-30T04:00:15;11.43;;;6.00;;
46889;SDS011;32625;51.080;16.970;2023-09-30T04:02:47;13.50;;;6.10;;
46889;SDS011;32625;51.080;16.970;2023-09-30T04:05:17;10.43;;;6.40;;
46889;SDS011;32625;51.080;16.970;2023-09-30T04:07:45;12.05;;;6.35;;
46889;SDS011;32625;51.080;16.970;2023-09-30T04:10:13;15.43;;;6.45;;
46889;SDS011;32625;51.080;16.970;2023-09-30T04:12:40;12.60;;;6.40;;
46889;SDS011;32625;51.080;16.970;2023-09-30T04:15:07;13.95;;;6.18;;
46889;SDS011;32625;51.080;16.970;2023-09-30T04:17:38;10.18;;;6.72;;
46889;SDS011;32625;51.080;16.970;2023-09-30T04:20:06;10.88;;;6.43;;
46889;SDS011;32625;51.080;16.970;2023-09-30T04:22:42;14.20;;;6.28;;
46889;SDS011;32625;51.080;16.970;2023-09-30T04:25:15;16.47;;;6.70;;
46889;SDS011;32625;51.080;16.970;2023-09-30T04:27:43;12.65;;;6.82;;
46889;SDS011;32625;51.080;16.970;2023-09-30T04:30:12;10.23;;;5.53;;
46889;SDS011;32625;51.080;16.970;2023-09-30T04:32:41;9.52;;;6.25;;
46889;SDS011;32625;51.080;16.970;2023-09-30T04:35:09;12.63;;;6.32;;
46889;SDS011;32625;51.080;16.970;2023-09-30T04:37:37;15.65;;;6.68;;
46889;SDS011;32625;51.080;16.970;2023-09-30T04:40:04;8.73;;;5.82;;
46889;SDS011;32625;51.080;16.970;2023-09-30T04:42:42;13.23;;;5.88;;
46889;SDS011;32625;51.080;16.970;2023-09-30T04:45:11;12.68;;;6.55;;
46889;SDS011;32625;51.080;16.970;2023-09-30T04:47:39;14.30;;;6.85;;
46889;SDS011;32625;51.080;16.970;2023-09-30T04:50:06;12.38;;;6.10;;
46889;SDS011;32625;51.080;16.970;2023-09-30T04:52:34;11.05;;;6.03;;
46889;SDS011;32625;51.080;16.970;2023-09-30T04:55:01;10.57;;;5.88;;
46889;SDS011;32625;51.080;16.970;2023-09-30T04:57:30;10.25;;;6.22;;
46889;SDS011;32625;51.080;16.970;2023-09-30T04:59:58;10.35;;;6.00;;
46889;SDS011;32625;51.080;16.970;2023-09-30T05:02:25;12.73;;;7.00;;
46889;SDS011;32625;51.080;16.970;2023-09-30T05:04:53;13.00;;;5.50;;
46889;SDS011;32625;51.080;16.970;2023-09-30T05:07:20;15.02;;;6.35;;
46889;SDS011;32625;51.080;16.970;2023-09-30T05:09:50;11.95;;;6.10;;
46889;SDS011;32625;51.080;16.970;2023-09-30T05:12:17;9.55;;;6.00;;
46889;SDS011;32625;51.080;16.970;2023-09-30T05:14:44;9.82;;;5.60;;
46889;SDS011;32625;51.080;16.970;2023-09-30T05:17:11;13.73;;;6.30;;
46889;SDS011;32625;51.080;16.970;2023-09-30T05:19:39;10.52;;;5.43;;
46889;SDS011;32625;51.080;16.970;2023-09-30T05:22:06;11.30;;;6.03;;
46889;SDS011;32625;51.080;16.970;2023-09-30T05:24:33;12.68;;;6.05;;
46889;SDS011;32625;51.080;16.970;2023-09-30T05:27:01;16.73;;;6.32;;
46889;SDS011;32625;51.080;16.970;2023-09-30T05:29:29;17.23;;;6.75;;
46889;SDS011;32625;51.080;16.970;2023-09-30T05:31:56;11.20;;;6.13;;
46889;SDS011;32625;51.080;16.970;2023-09-30T05:34:23;11.55;;;6.18;;
46889;SDS011;32625;51.080;16.970;2023-09-30T05:36:50;9.65;;;6.13;;
46889;SDS011;32625;51.080;16.970;2023-09-30T05:39:18;9.43;;;5.97;;
46889;SDS011;32625;51.080;16.970;2023-09-30T05:41:46;14.75;;;6.82;;
46889;SDS011;32625;51.080;16.970;2023-09-30T05:44:13;12.05;;;6.05;;
46889;SDS011;32625;51.080;16.970;2023-09-30T05:46:41;11.82;;;5.95;;
46889;SDS011;32625;51.080;16.970;2023-09-30T05:49:10;11.32;;;6.25;;
46889;SDS011;32625;51.080;16.970;2023-09-30T05:51:40;10.88;;;5.13;;
46889;SDS011;32625;51.080;16.970;2023-09-30T05:54:07;12.50;;;5.95;;
46889;SDS011;32625;51.080;16.970;2023-09-30T05:56:36;13.90;;;5.97;;
46889;SDS011;32625;51.080;16.970;2023-09-30T05:59:04;10.02;;;5.35;;
46889;SDS011;32625;51.080;16.970;2023-09-30T06:01:31;8.82;;;4.45;;
46889;SDS011;32625;51.080;16.970;2023-09-30T06:03:59;9.25;;;4.32;;
46889;SDS011;32625;51.080;16.970;2023-09-30T06:06:27;13.43;;;5.43;;
46889;SDS011;32625;51.080;16.970;2023-09-30T06:08:57;6.13;;;3.47;;
46889;SDS011;32625;51.080;16.970;2023-09-30T06:11:27;9.23;;;4.63;;
46889;SDS011;32625;51.080;16.970;2023-09-30T06:13:55;6.00;;;3.40;;
46889;SDS011;32625;51.080;16.970;2023-09-30T06:16:25;5.93;;;3.00;;
46889;SDS011;32625;51.080;16.970;2023-09-30T06:18:53;10.48;;;3.55;;
46889;SDS011;32625;51.080;16.970;2023-09-30T06:21:21;7.13;;;2.70;;
46889;SDS011;32625;51.080;16.970;2023-09-30T06:23:48;3.63;;;1.95;;
46889;SDS011;32625;51.080;16.970;2023-09-30T06:26:15;7.50;;;2.38;;
46889;SDS011;32625;51.080;16.970;2023-09-30T06:28:43;8.45;;;2.55;;
46889;SDS011;32625;51.080;16.970;2023-09-30T06:31:11;5.45;;;2.58;;
46889;SDS011;32625;51.080;16.970;2023-09-30T06:33:38;7.72;;;2.83;;
46889;SDS011;32625;51.080;16.970;2023-09-30T06:36:09;4.35;;;2.50;;
46889;SDS011;32625;51.080;16.970;2023-09-30T06:38:41;5.25;;;2.70;;
46889;SDS011;32625;51.080;16.970;2023-09-30T06:41:17;10.80;;;3.45;;
46889;SDS011;32625;51.080;16.970;2023-09-30T06:43:44;4.90;;;3.65;;
46889;SDS011;32625;51.080;16.970;2023-09-30T06:46:13;4.65;;;3.40;;
46889;SDS011;32625;51.080;16.970;2023-09-30T06:48:40;6.80;;;3.65;;
46889;SDS011;32625;51.080;16.970;2023-09-30T06:51:07;5.28;;;4.00;;
46889;SDS011;32625;51.080;16.970;2023-09-30T06:53:40;5.53;;;3.88;;
46889;SDS011;32625;51.080;16.970;2023-09-30T06:56:07;6.50;;;4.25;;
46889;SDS011;32625;51.080;16.970;2023-09-30T06:58:34;8.75;;;4.30;;
46889;SDS011;32625;51.080;16.970;2023-09-30T07:01:01;12.80;;;5.10;;
46889;SDS011;32625;51.080;16.970;2023-09-30T07:03:28;7.72;;;4.50;;
46889;SDS011;32625;51.080;16.970;2023-09-30T07:05:56;8.75;;;4.40;;
46889;SDS011;32625;51.080;16.970;2023-09-30T07:08:27;9.68;;;4.38;;
46889;SDS011;32625;51.080;16.970;2023-09-30T07:10:56;9.02;;;4.05;;
46889;SDS011;32625;51.080;16.970;2023-09-30T07:13:23;5.65;;;3.50;;
46889;SDS011;32625;51.080;16.970;2023-09-30T07:15:50;9.90;;;3.67;;
46889;SDS011;32625;51.080;16.970;2023-09-30T07:18:17;8.15;;;3.83;;
46889;SDS011;32625;51.080;16.970;2023-09-30T07:20:44;7.10;;;3.65;;
46889;SDS011;32625;51.080;16.970;2023-09-30T07:23:11;7.40;;;3.90;;
46889;SDS011;32625;51.080;16.970;2023-09-30T07:25:46;8.25;;;4.22;;
46889;SDS011;32625;51.080;16.970;2023-09-30T07:28:14;8.88;;;3.53;;
46889;SDS011;32625;51.080;16.970;2023-09-30T07:30:41;10.73;;;3.38;;
46889;SDS011;32625;51.080;16.970;2023-09-30T07:33:08;8.43;;;3.10;;
46889;SDS011;32625;51.080;16.970;2023-09-30T07:35:35;7.93;;;2.50;;
46889;SDS011;32625;51.080;16.970;2023-09-30T07:38:05;9.73;;;2.67;;
46889;SDS011;32625;51.080;16.970;2023-09-30T07:40:32;6.60;;;3.20;;
46889;SDS011;32625;51.080;16.970;2023-09-30T07:42:59;8.75;;;2.78;;
46889;SDS011;32625;51.080;16.970;2023-09-30T07:45:26;7.78;;;2.65;;
46889;SDS011;32625;51.080;16.970;2023-09-30T07:47:54;10.40;;;2.47;;
46889;SDS011;32625;51.080;16.970;2023-09-30T07:50:22;7.80;;;2.65;;
46889;SDS011;32625;51.080;16.970;2023-09-30T07:52:48;6.82;;;2.67;;
46889;SDS011;32625;51.080;16.970;2023-09-30T07:55:15;13.38;;;2.60;;
46889;SDS011;32625;51.080;16.970;2023-09-30T07:57:42;10.40;;;2.40;;
46889;SDS011;32625;51.080;16.970;2023-09-30T08:00:10;4.45;;;2.13;;
46889;SDS011;32625;51.080;16.970;2023-09-30T08:02:42;8.20;;;2.50;;
46889;SDS011;32625;51.080;16.970;2023-09-30T08:05:10;6.63;;;2.75;;
46889;SDS011;32625;51.080;16.970;2023-09-30T08:07:37;10.90;;;2.33;;
46889;SDS011;32625;51.080;16.970;2023-09-30T08:10:04;6.53;;;1.90;;
46889;SDS011;32625;51.080;16.970;2023-09-30T08:12:33;6.93;;;2.20;;
46889;SDS011;32625;51.080;16.970;2023-09-30T08:15:00;6.85;;;2.00;;
46889;SDS011;32625;51.080;16.970;2023-09-30T08:17:30;8.43;;;2.38;;
46889;SDS011;32625;51.080;16.970;2023-09-30T08:19:57;6.43;;;2.30;;
46889;SDS011;32625;51.080;16.970;2023-09-30T08:22:24;7.05;;;2.28;;
46889;SDS011;32625;51.080;16.970;2023-09-30T08:24:54;4.95;;;2.00;;
46889;SDS011;32625;51.080;16.970;2023-09-30T08:27:21;9.52;;;2.42;;
46889;SDS011;32625;51.080;16.970;2023-09-30T08:29:50;11.55;;;2.55;;
46889;SDS011;32625;51.080;16.970;2023-09-30T08:32:17;10.35;;;2.67;;
46889;SDS011;32625;51.080;16.970;2023-09-30T08:34:44;12.88;;;2.60;;
46889;SDS011;32625;51.080;16.970;2023-09-30T08:37:11;8.55;;;2.30;;
46889;SDS011;32625;51.080;16.970;2023-09-30T08:39:38;6.25;;;2.50;;
46889;SDS011;32625;51.080;16.970;2023-09-30T08:42:10;8.30;;;2.30;;
46889;SDS011;32625;51.080;16.970;2023-09-30T08:44:40;8.13;;;3.22;;
46889;SDS011;32625;51.080;16.970;2023-09-30T08:47:08;8.30;;;2.85;;
46889;SDS011;32625;51.080;16.970;2023-09-30T08:49:39;9.02;;;2.53;;
46889;SDS011;32625;51.080;16.970;2023-09-30T08:52:09;7.60;;;2.45;;
46889;SDS011;32625;51.080;16.970;2023-09-30T08:54:37;12.18;;;2.85;;
46889;SDS011;32625;51.080;16.970;2023-09-30T08:57:05;10.73;;;3.30;;
46889;SDS011;32625;51.080;16.970;2023-09-30T08:59:36;9.60;;;2.78;;
46889;SDS011;32625;51.080;16.970;2023-09-30T09:02:07;9.65;;;2.28;;
46889;SDS011;32625;51.080;16.970;2023-09-30T09:04:36;8.45;;;2.42;;
46889;SDS011;32625;51.080;16.970;2023-09-30T09:07:04;9.88;;;2.65;;
46889;SDS011;32625;51.080;16.970;2023-09-30T09:09:31;6.90;;;2.25;;
46889;SDS011;32625;51.080;16.970;2023-09-30T09:11:58;12.65;;;2.95;;
46889;SDS011;32625;51.080;16.970;2023-09-30T09:14:36;8.68;;;2.50;;
46889;SDS011;32625;51.080;16.970;2023-09-30T09:17:07;10.00;;;2.40;;
46889;SDS011;32625;51.080;16.970;2023-09-30T09:19:35;6.88;;;2.17;;
46889;SDS011;32625;51.080;16.970;2023-09-30T09:22:02;11.73;;;2.90;;
46889;SDS011;32625;51.080;16.970;2023-09-30T09:24:34;8.23;;;2.35;;
46889;SDS011;32625;51.080;16.970;2023-09-30T09:27:10;7.82;;;2.78;;
46889;SDS011;32625;51.080;16.970;2023-09-30T09:29:38;8.25;;;2.60;;
46889;SDS011;32625;51.080;16.970;2023-09-30T09:32:15;9.20;;;3.08;;
46889;SDS011;32625;51.080;16.970;2023-09-30T09:34:44;7.28;;;2.30;;
46889;SDS011;32625;51.080;16.970;2023-09-30T09:39:49;6.55;;;2.15;;
46889;SDS011;32625;51.080;16.970;2023-09-30T09:42:30;9.32;;;2.25;;
46889;SDS011;32625;51.080;16.970;2023-09-30T09:45:03;7.15;;;2.25;;
46889;SDS011;32625;51.080;16.970;2023-09-30T09:47:32;6.32;;;2.38;;
46889;SDS011;32625;51.080;16.970;2023-09-30T09:50:00;11.27;;;2.83;;
46889;SDS011;32625;51.080;16.970;2023-09-30T09:52:29;7.35;;;1.80;;
46889;SDS011;32625;51.080;16.970;2023-09-30T09:54:57;7.72;;;2.15;;
46889;SDS011;32625;51.080;16.970;2023-09-30T09:57:25;6.35;;;2.30;;
46889;SDS011;32625;51.080;16.970;2023-09-30T09:59:54;7.40;;;2.55;;
46889;SDS011;32625;51.080;16.970;2023-09-30T10:02:25;8.77;;;2.50;;
46889;SDS011;32625;51.080;16.970;2023-09-30T10:04:55;5.10;;;2.13;;
46889;SDS011;32625;51.080;16.970;2023-09-30T10:07:27;7.78;;;2.13;;
46889;SDS011;32625;51.080;16.970;2023-09-30T10:12:26;9.52;;;2.55;;
46889;SDS011;32625;51.080;16.970;2023-09-30T10:14:54;6.03;;;2.33;;
46889;SDS011;32625;51.080;16.970;2023-09-30T10:17:21;10.20;;;2.80;;
46889;SDS011;32625;51.080;16.970;2023-09-30T10:20:27;8.88;;;2.28;;
46889;SDS011;32625;51.080;16.970;2023-09-30T10:25:48;7.15;;;2.28;;
46889;SDS011;32625;51.080;16.970;2023-09-30T10:31:15;15.27;;;2.83;;
46889;SDS011;32625;51.080;16.970;2023-09-30T10:36:38;10.70;;;2.45;;
46889;SDS011;32625;51.080;16.970;2023-09-30T10:39:11;11.23;;;3.25;;
46889;SDS011;32625;51.080;16.970;2023-09-30T10:46:59;11.63;;;2.92;;
46889;SDS011;32625;51.080;16.970;2023-09-30T10:49:45;10.32;;;2.70;;
46889;SDS011;32625;51.080;16.970;2023-09-30T10:52:16;12.93;;;3.20;;
46889;SDS011;32625;51.080;16.970;2023-09-30T10:54:52;11.57;;;2.85;;
46889;SDS011;32625;51.080;16.970;2023-09-30T10:57:26;9.32;;;2.88;;
46889;SDS011;32625;51.080;16.970;2023-09-30T11:00:09;7.57;;;2.58;;
46889;SDS011;32625;51.080;16.970;2023-09-30T11:02:47;11.80;;;3.42;;
46889;SDS011;32625;51.080;16.970;2023-09-30T11:05:18;14.25;;;3.83;;
46889;SDS011;32625;51.080;16.970;2023-09-30T11:08:01;18.83;;;3.47;;
46889;SDS011;32625;51.080;16.970;2023-09-30T11:10:30;8.57;;;2.95;;
46889;SDS011;32625;51.080;16.970;2023-09-30T11:12:58;10.57;;;3.13;;
46889;SDS011;32625;51.080;16.970;2023-09-30T11:15:25;11.50;;;3.38;;
46889;SDS011;32625;51.080;16.970;2023-09-30T11:18:11;13.80;;;3.33;;
46889;SDS011;32625;51.080;16.970;2023-09-30T11:20:41;8.80;;;2.85;;
46889;SDS011;32625;51.080;16.970;2023-09-30T11:23:09;10.85;;;3.13;;
46889;SDS011;32625;51.080;16.970;2023-09-30T11:25:38;5.65;;;2.92;;
46889;SDS011;32625;51.080;16.970;2023-09-30T11:28:12;12.05;;;3.13;;
46889;SDS011;32625;51.080;16.970;2023-09-30T11:30:56;7.65;;;3.38;;
46889;SDS011;32625;51.080;16.970;2023-09-30T11:33:25;8.82;;;2.65;;
46889;SDS011;32625;51.080;16.970;2023-09-30T11:36:03;13.88;;;3.03;;
46889;SDS011;32625;51.080;16.970;2023-09-30T11:38:32;11.65;;;3.97;;
46889;SDS011;32625;51.080;16.970;2023-09-30T11:41:04;11.32;;;2.92;;
46889;SDS011;32625;51.080;16.970;2023-09-30T11:43:33;11.13;;;2.65;;
46889;SDS011;32625;51.080;16.970;2023-09-30T11:46:10;9.75;;;2.67;;
46889;SDS011;32625;51.080;16.970;2023-09-30T11:48:56;11.05;;;2.63;;
46889;SDS011;32625;51.080;16.970;2023-09-30T11:51:27;11.43;;;3.05;;
46889;SDS011;32625;51.080;16.970;2023-09-30T11:53:55;9.32;;;3.38;;
46889;SDS011;32625;51.080;16.970;2023-09-30T11:56:25;9.98;;;3.10;;
46889;SDS011;32625;51.080;16.970;2023-09-30T11:58:56;15.02;;;3.05;;
46889;SDS011;32625;51.080;16.970;2023-09-30T12:01:24;10.70;;;3.38;;
46889;SDS011;32625;51.080;16.970;2023-09-30T12:03:52;6.97;;;2.90;;
46889;SDS011;32625;51.080;16.970;2023-09-30T12:06:24;7.80;;;2.90;;
46889;SDS011;32625;51.080;16.970;2023-09-30T12:08:51;5.93;;;2.88;;
46889;SDS011;32625;51.080;16.970;2023-09-30T12:11:18;12.93;;;3.03;;
46889;SDS011;32625;51.080;16.970;2023-09-30T12:13:45;10.38;;;2.78;;
46889;SDS011;32625;51.080;16.970;2023-09-30T12:16:15;10.00;;;3.25;;
46889;SDS011;32625;51.080;16.970;2023-09-30T12:18:43;10.63;;;3.03;;
46889;SDS011;32625;51.080;16.970;2023-09-30T12:21:11;7.93;;;2.92;;
46889;SDS011;32625;51.080;16.970;2023-09-30T12:23:39;10.30;;;3.10;;
46889;SDS011;32625;51.080;16.970;2023-09-30T12:26:07;13.25;;;3.58;;
46889;SDS011;32625;51.080;16.970;2023-09-30T12:28:40;13.98;;;2.80;;
46889;SDS011;32625;51.080;16.970;2023-09-30T12:31:07;8.73;;;2.80;;
46889;SDS011;32625;51.080;16.970;2023-09-30T12:33:34;9.23;;;3.15;;
46889;SDS011;32625;51.080;16.970;2023-09-30T12:36:01;9.13;;;2.60;;
46889;SDS011;32625;51.080;16.970;2023-09-30T12:38:28;8.95;;;2.63;;
46889;SDS011;32625;51.080;16.970;2023-09-30T12:40:55;8.68;;;2.78;;
46889;SDS011;32625;51.080;16.970;2023-09-30T12:43:22;8.43;;;2.92;;
46889;SDS011;32625;51.080;16.970;2023-09-30T12:45:49;9.27;;;2.90;;
46889;SDS011;32625;51.080;16.970;2023-09-30T12:48:17;10.43;;;2.92;;
46889;SDS011;32625;51.080;16.970;2023-09-30T12:50:44;13.20;;;2.78;;
46889;SDS011;32625;51.080;16.970;2023-09-30T12:53:11;12.07;;;2.83;;
46889;SDS011;32625;51.080;16.970;2023-09-30T12:55:38;7.18;;;2.80;;
46889;SDS011;32625;51.080;16.970;2023-09-30T12:58:05;13.80;;;2.65;;
46889;SDS011;32625;51.080;16.970;2023-09-30T13:00:32;10.02;;;2.55;;
46889;SDS011;32625;51.080;16.970;2023-09-30T13:03:00;6.13;;;2.60;;
46889;SDS011;32625;51.080;16.970;2023-09-30T13:05:27;13.70;;;2.85;;
46889;SDS011;32625;51.080;16.970;2023-09-30T13:07:57;10.02;;;3.47;;
46889;SDS011;32625;51.080;16.970;2023-09-30T13:10:24;7.93;;;2.63;;
46889;SDS011;32625;51.080;16.970;2023-09-30T13:12:52;9.57;;;3.13;;
46889;SDS011;32625;51.080;16.970;2023-09-30T13:15:20;7.78;;;3.03;;
46889;SDS011;32625;51.080;16.970;2023-09-30T13:17:48;10.85;;;2.67;;
46889;SDS011;32625;51.080;16.970;2023-09-30T13:20:15;8.77;;;2.45;;
46889;SDS011;32625;51.080;16.970;2023-09-30T13:22:43;9.50;;;3.13;;
46889;SDS011;32625;51.080;16.970;2023-09-30T13:25:12;7.20;;;2.78;;
46889;SDS011;32625;51.080;16.970;2023-09-30T13:27:39;9.15;;;2.72;;
46889;SDS011;32625;51.080;16.970;2023-09-30T13:30:07;8.60;;;2.58;;
46889;SDS011;32625;51.080;16.970;2023-09-30T13:32:35;8.82;;;2.80;;
46889;SDS011;32625;51.080;16.970;2023-09-30T13:35:05;10.02;;;2.65;;
46889;SDS011;32625;51.080;16.970;2023-09-30T13:37:33;9.68;;;2.90;;
46889;SDS011;32625;51.080;16.970;2023-09-30T13:40:02;18.27;;;3.15;;
46889;SDS011;32625;51.080;16.970;2023-09-30T13:42:31;6.75;;;2.28;;
46889;SDS011;32625;51.080;16.970;2023-09-30T13:44:58;12.25;;;3.00;;
46889;SDS011;32625;51.080;16.970;2023-09-30T13:47:25;11.93;;;2.65;;
46889;SDS011;32625;51.080;16.970;2023-09-30T13:49:52;9.90;;;2.35;;
46889;SDS011;32625;51.080;16.970;2023-09-30T13:52:19;12.70;;;3.15;;
46889;SDS011;32625;51.080;16.970;2023-09-30T13:54:46;5.72;;;2.38;;
46889;SDS011;32625;51.080;16.970;2023-09-30T13:57:13;9.20;;;2.42;;
46889;SDS011;32625;51.080;16.970;2023-09-30T13:59:41;9.07;;;3.00;;
46889;SDS011;32625;51.080;16.970;2023-09-30T14:02:10;7.13;;;2.80;;
46889;SDS011;32625;51.080;16.970;2023-09-30T14:04:38;10.68;;;2.38;;
46889;SDS011;32625;51.080;16.970;2023-09-30T14:07:05;9.27;;;3.33;;
46889;SDS011;32625;51.080;16.970;2023-09-30T14:09:34;10.27;;;3.00;;
46889;SDS011;32625;51.080;16.970;2023-09-30T14:12:02;11.32;;;2.92;;
46889;SDS011;32625;51.080;16.970;2023-09-30T14:14:33;6.90;;;2.50;;
46889;SDS011;32625;51.080;16.970;2023-09-30T14:17:03;8.55;;;2.80;;
46889;SDS011;32625;51.080;16.970;2023-09-30T14:19:41;9.38;;;2.80;;
46889;SDS011;32625;51.080;16.970;2023-09-30T14:22:08;11.00;;;2.88;;
46889;SDS011;32625;51.080;16.970;2023-09-30T14:24:35;11.20;;;3.03;;
46889;SDS011;32625;51.080;16.970;2023-09-30T14:27:03;9.70;;;2.80;;
46889;SDS011;32625;51.080;16.970;2023-09-30T14:29:30;11.20;;;2.47;;
46889;SDS011;32625;51.080;16.970;2023-09-30T14:31:58;8.40;;;2.25;;
46889;SDS011;32625;51.080;16.970;2023-09-30T14:34:25;8.93;;;2.72;;
46889;SDS011;32625;51.080;16.970;2023-09-30T14:36:52;10.57;;;3.03;;
46889;SDS011;32625;51.080;16.970;2023-09-30T14:39:19;11.65;;;2.67;;
46889;SDS011;32625;51.080;16.970;2023-09-30T14:41:46;8.48;;;2.58;;
46889;SDS011;32625;51.080;16.970;2023-09-30T14:44:14;12.80;;;2.90;;
46889;SDS011;32625;51.080;16.970;2023-09-30T14:46:41;9.98;;;2.55;;
46889;SDS011;32625;51.080;16.970;2023-09-30T14:49:08;14.98;;;2.92;;
46889;SDS011;32625;51.080;16.970;2023-09-30T14:51:35;11.45;;;3.40;;
46889;SDS011;32625;51.080;16.970;2023-09-30T14:54:02;10.00;;;2.95;;